sensor_id;sensor_type;location;lat;lon;timestamp;P1;durP1;ratioP1;P2;durP2;ratioP2
54795;SDS011;40693;43.884;20.340;2023-06-24T00:01:50;24.50;;;11.88;;
54795;SDS011;40693;43.884;20.340;2023-06-24T00:04:16;43.35;;;12.98;;
54795;SDS011;40693;43.884;20.340;2023-06-24T00:06:45;38.45;;;12.65;;
54795;SDS011;40693;43.884;20.340;2023-06-24T00:09:11;36.50;;;12.07;;
54795;SDS011;40693;43.884;20.340;2023-06-24T00:11:36;36.00;;;11.93;;
54795;SDS011;40693;43.884;20.340;2023-06-24T00:14:02;34.95;;;14.15;;
54795;SDS011;40693;43.884;20.340;2023-06-24T00:16:28;30.65;;;11.00;;
54795;SDS011;40693;43.884;20.340;2023-06-24T00:18:57;31.85;;;9.43;;
54795;SDS011;40693;43.884;20.340;2023-06-24T00:21:24;28.63;;;10.13;;
54795;SDS011;40693;43.884;20.340;2023-06-24T00:23:55;22.23;;;10.07;;
54795;SDS011;40693;43.884;20.340;2023-06-24T00:28:53;24.77;;;6.63;;
54795;SDS011;40693;43.884;20.340;2023-06-24T00:31:19;17.50;;;6.43;;
54795;SDS011;40693;43.884;20.340;2023-06-24T00:33:45;19.02;;;7.07;;
54795;SDS011;40693;43.884;20.340;2023-06-24T00:36:11;23.05;;;7.38;;
54795;SDS011;40693;43.884;20.340;2023-06-24T00:38:37;19.33;;;6.65;;
54795;SDS011;40693;43.884;20.340;2023-06-24T00:41:04;25.10;;;7.35;;
54795;SDS011;40693;43.884;20.340;2023-06-24T00:43:29;16.13;;;6.75;;
54795;SDS011;40693;43.884;20.340;2023-06-24T00:45:56;13.55;;;6.68;;
54795;SDS011;40693;43.884;20.340;2023-06-24T00:48:22;21.27;;;8.00;;
54795;SDS011;40693;43.884;20.340;2023-06-24T00:50:49;15.77;;;6.07;;
54795;SDS011;40693;43.884;20.340;2023-06-24T00:53:15;18.35;;;6.63;;
54795;SDS011;40693;43.884;20.340;2023-06-24T00:55:42;13.75;;;6.18;;
54795;SDS011;40693;43.884;20.340;2023-06-24T00:58:09;15.50;;;6.43;;
54795;SDS011;40693;43.884;20.340;2023-06-24T01:00:34;12.93;;;6.05;;
54795;SDS011;40693;43.884;20.340;2023-06-24T01:03:00;13.00;;;5.95;;
54795;SDS011;40693;43.884;20.340;2023-06-24T01:05:27;10.25;;;6.35;;
54795;SDS011;40693;43.884;20.340;2023-06-24T01:08:00;16.25;;;5.97;;
54795;SDS011;40693;43.884;20.340;2023-06-24T01:10:26;16.88;;;6.05;;
54795;SDS011;40693;43.884;20.340;2023-06-24T01:12:52;13.18;;;7.20;;
54795;SDS011;40693;43.884;20.340;2023-06-24T01:15:18;14.68;;;7.53;;
54795;SDS011;40693;43.884;20.340;2023-06-24T01:25:59;15.20;;;7.38;;
54795;SDS011;40693;43.884;20.340;2023-06-24T01:28:41;13.93;;;6.70;;
54795;SDS011;40693;43.884;20.340;2023-06-24T01:34:18;16.45;;;9.23;;
54795;SDS011;40693;43.884;20.340;2023-06-24T01:39:36;14.93;;;7.85;;
54795;SDS011;40693;43.884;20.340;2023-06-24T01:42:07;15.55;;;7.93;;
54795;SDS011;40693;43.884;20.340;2023-06-24T01:44:36;19.02;;;8.70;;
54795;SDS011;40693;43.884;20.340;2023-06-24T01:47:06;17.70;;;8.38;;
54795;SDS011;40693;43.884;20.340;2023-06-24T01:49:33;12.63;;;7.38;;
54795;SDS011;40693;43.884;20.340;2023-06-24T01:52:05;15.18;;;8.27;;
54795;SDS011;40693;43.884;20.340;2023-06-24T01:54:34;14.63;;;8.23;;
54795;SDS011;40693;43.884;20.340;2023-06-24T01:57:03;18.67;;;8.88;;
54795;SDS011;40693;43.884;20.340;2023-06-24T01:59:32;15.57;;;8.13;;
54795;SDS011;40693;43.884;20.340;2023-06-24T02:02:00;18.58;;;8.40;;
54795;SDS011;40693;43.884;20.340;2023-06-24T02:04:28;21.58;;;7.90;;
54795;SDS011;40693;43.884;20.340;2023-06-24T02:06:57;10.55;;;7.07;;
54795;SDS011;40693;43.884;20.340;2023-06-24T02:09:25;18.23;;;7.82;;
54795;SDS011;40693;43.884;20.340;2023-06-24T02:11:53;16.55;;;9.20;;
54795;SDS011;40693;43.884;20.340;2023-06-24T02:14:21;17.23;;;8.63;;
54795;SDS011;40693;43.884;20.340;2023-06-24T02:16:48;11.73;;;7.63;;
54795;SDS011;40693;43.884;20.340;2023-06-24T02:19:16;18.30;;;9.57;;
54795;SDS011;40693;43.884;20.340;2023-06-24T02:21:43;16.83;;;8.02;;
54795;SDS011;40693;43.884;20.340;2023-06-24T02:24:11;19.50;;;8.48;;
54795;SDS011;40693;43.884;20.340;2023-06-24T02:26:37;13.75;;;7.72;;
54795;SDS011;40693;43.884;20.340;2023-06-24T02:29:06;10.95;;;6.68;;
54795;SDS011;40693;43.884;20.340;2023-06-24T02:31:35;12.35;;;6.95;;
54795;SDS011;40693;43.884;20.340;2023-06-24T02:34:01;19.52;;;7.97;;
54795;SDS011;40693;43.884;20.340;2023-06-24T02:36:27;12.30;;;7.70;;
54795;SDS011;40693;43.884;20.340;2023-06-24T02:38:52;15.77;;;8.23;;
54795;SDS011;40693;43.884;20.340;2023-06-24T02:41:18;10.43;;;7.05;;
54795;SDS011;40693;43.884;20.340;2023-06-24T02:43:44;12.85;;;6.97;;
54795;SDS011;40693;43.884;20.340;2023-06-24T02:46:09;15.23;;;7.88;;
54795;SDS011;40693;43.884;20.340;2023-06-24T02:48:36;14.40;;;7.72;;
54795;SDS011;40693;43.884;20.340;2023-06-24T02:51:03;11.65;;;7.88;;
54795;SDS011;40693;43.884;20.340;2023-06-24T02:53:31;16.25;;;7.60;;
54795;SDS011;40693;43.884;20.340;2023-06-24T02:55:57;9.07;;;6.68;;
54795;SDS011;40693;43.884;20.340;2023-06-24T02:58:24;19.85;;;7.57;;
54795;SDS011;40693;43.884;20.340;2023-06-24T03:00:56;13.63;;;6.80;;
54795;SDS011;40693;43.884;20.340;2023-06-24T03:03:27;15.38;;;7.28;;
54795;SDS011;40693;43.884;20.340;2023-06-24T03:05:54;13.85;;;6.80;;
54795;SDS011;40693;43.884;20.340;2023-06-24T03:08:22;9.35;;;6.65;;
54795;SDS011;40693;43.884;20.340;2023-06-24T03:10:49;11.30;;;6.70;;
54795;SDS011;40693;43.884;20.340;2023-06-24T03:13:24;9.52;;;5.80;;
54795;SDS011;40693;43.884;20.340;2023-06-24T03:15:50;11.95;;;6.68;;
54795;SDS011;40693;43.884;20.340;2023-06-24T03:18:17;11.20;;;6.07;;
54795;SDS011;40693;43.884;20.340;2023-06-24T03:20:43;11.65;;;7.13;;
54795;SDS011;40693;43.884;20.340;2023-06-24T03:23:09;11.73;;;6.70;;
54795;SDS011;40693;43.884;20.340;2023-06-24T03:25:36;12.00;;;6.80;;
54795;SDS011;40693;43.884;20.340;2023-06-24T03:28:01;9.25;;;5.25;;
54795;SDS011;40693;43.884;20.340;2023-06-24T03:30:32;10.80;;;5.78;;
54795;SDS011;40693;43.884;20.340;2023-06-24T03:32:58;10.00;;;5.65;;
54795;SDS011;40693;43.884;20.340;2023-06-24T03:35:24;10.85;;;5.93;;
54795;SDS011;40693;43.884;20.340;2023-06-24T03:37:50;9.02;;;5.65;;
54795;SDS011;40693;43.884;20.340;2023-06-24T03:40:15;12.57;;;6.47;;
54795;SDS011;40693;43.884;20.340;2023-06-24T03:42:42;9.98;;;5.78;;
54795;SDS011;40693;43.884;20.340;2023-06-24T03:45:07;14.05;;;6.18;;
54795;SDS011;40693;43.884;20.340;2023-06-24T03:47:33;10.85;;;6.10;;
54795;SDS011;40693;43.884;20.340;2023-06-24T03:49:59;12.52;;;6.35;;
54795;SDS011;40693;43.884;20.340;2023-06-24T03:52:25;11.23;;;6.68;;
54795;SDS011;40693;43.884;20.340;2023-06-24T03:54:51;9.38;;;6.28;;
54795;SDS011;40693;43.884;20.340;2023-06-24T03:57:16;8.38;;;5.40;;
54795;SDS011;40693;43.884;20.340;2023-06-24T03:59:42;8.85;;;6.20;;
54795;SDS011;40693;43.884;20.340;2023-06-24T04:02:08;11.07;;;6.70;;
54795;SDS011;40693;43.884;20.340;2023-06-24T04:04:34;12.50;;;6.00;;
54795;SDS011;40693;43.884;20.340;2023-06-24T04:07:00;13.57;;;5.55;;
54795;SDS011;40693;43.884;20.340;2023-06-24T04:09:26;11.43;;;6.03;;
54795;SDS011;40693;43.884;20.340;2023-06-24T04:11:53;11.40;;;7.53;;
54795;SDS011;40693;43.884;20.340;2023-06-24T04:14:19;21.45;;;6.45;;
54795;SDS011;40693;43.884;20.340;2023-06-24T04:16:48;12.07;;;6.13;;
54795;SDS011;40693;43.884;20.340;2023-06-24T04:19:15;9.43;;;6.38;;
54795;SDS011;40693;43.884;20.340;2023-06-24T04:21:41;9.40;;;6.75;;
54795;SDS011;40693;43.884;20.340;2023-06-24T04:24:07;12.63;;;6.30;;
54795;SDS011;40693;43.884;20.340;2023-06-24T04:26:32;9.70;;;6.45;;
54795;SDS011;40693;43.884;20.340;2023-06-24T04:28:58;12.27;;;6.30;;
54795;SDS011;40693;43.884;20.340;2023-06-24T04:31:24;10.85;;;6.47;;
54795;SDS011;40693;43.884;20.340;2023-06-24T04:33:50;10.80;;;6.18;;
54795;SDS011;40693;43.884;20.340;2023-06-24T04:36:16;12.05;;;6.13;;
54795;SDS011;40693;43.884;20.340;2023-06-24T04:38:42;11.32;;;5.85;;
54795;SDS011;40693;43.884;20.340;2023-06-24T04:41:08;11.23;;;5.72;;
54795;SDS011;40693;43.884;20.340;2023-06-24T04:43:34;8.43;;;5.97;;
54795;SDS011;40693;43.884;20.340;2023-06-24T04:46:00;9.40;;;5.53;;
54795;SDS011;40693;43.884;20.340;2023-06-24T04:48:26;11.82;;;5.60;;
54795;SDS011;40693;43.884;20.340;2023-06-24T04:50:52;11.82;;;5.00;;
54795;SDS011;40693;43.884;20.340;2023-06-24T04:53:19;10.30;;;6.20;;
54795;SDS011;40693;43.884;20.340;2023-06-24T04:55:48;12.55;;;5.00;;
54795;SDS011;40693;43.884;20.340;2023-06-24T04:58:14;11.48;;;6.18;;
54795;SDS011;40693;43.884;20.340;2023-06-24T05:00:39;10.25;;;6.28;;
54795;SDS011;40693;43.884;20.340;2023-06-24T05:03:05;8.60;;;5.90;;
54795;SDS011;40693;43.884;20.340;2023-06-24T05:05:31;8.05;;;5.78;;
54795;SDS011;40693;43.884;20.340;2023-06-24T05:07:57;11.02;;;6.82;;
54795;SDS011;40693;43.884;20.340;2023-06-24T05:10:22;11.73;;;6.20;;
54795;SDS011;40693;43.884;20.340;2023-06-24T05:12:48;17.35;;;6.93;;
54795;SDS011;40693;43.884;20.340;2023-06-24T05:15:14;15.48;;;7.25;;
54795;SDS011;40693;43.884;20.340;2023-06-24T05:17:39;11.35;;;7.80;;
54795;SDS011;40693;43.884;20.340;2023-06-24T05:20:06;11.93;;;7.00;;
54795;SDS011;40693;43.884;20.340;2023-06-24T05:22:32;13.50;;;8.75;;
54795;SDS011;40693;43.884;20.340;2023-06-24T05:24:57;10.82;;;7.03;;
54795;SDS011;40693;43.884;20.340;2023-06-24T05:27:23;10.10;;;6.80;;
54795;SDS011;40693;43.884;20.340;2023-06-24T05:29:49;12.95;;;5.90;;
54795;SDS011;40693;43.884;20.340;2023-06-24T05:32:14;14.68;;;6.80;;
54795;SDS011;40693;43.884;20.340;2023-06-24T05:34:42;10.77;;;7.35;;
54795;SDS011;40693;43.884;20.340;2023-06-24T05:37:08;9.75;;;6.15;;
54795;SDS011;40693;43.884;20.340;2023-06-24T05:39:34;8.35;;;6.45;;
54795;SDS011;40693;43.884;20.340;2023-06-24T05:41:59;12.65;;;6.97;;
54795;SDS011;40693;43.884;20.340;2023-06-24T05:44:25;12.15;;;7.75;;
54795;SDS011;40693;43.884;20.340;2023-06-24T05:46:51;9.73;;;6.38;;
54795;SDS011;40693;43.884;20.340;2023-06-24T05:49:17;13.10;;;8.20;;
54795;SDS011;40693;43.884;20.340;2023-06-24T05:51:42;10.63;;;7.47;;
54795;SDS011;40693;43.884;20.340;2023-06-24T05:54:08;15.55;;;7.70;;
54795;SDS011;40693;43.884;20.340;2023-06-24T05:56:34;14.10;;;7.20;;
54795;SDS011;40693;43.884;20.340;2023-06-24T05:59:01;17.95;;;8.43;;
54795;SDS011;40693;43.884;20.340;2023-06-24T06:01:27;18.67;;;9.18;;
54795;SDS011;40693;43.884;20.340;2023-06-24T06:03:52;12.23;;;7.70;;
54795;SDS011;40693;43.884;20.340;2023-06-24T06:06:18;13.57;;;7.78;;
54795;SDS011;40693;43.884;20.340;2023-06-24T06:08:44;17.70;;;8.95;;
54795;SDS011;40693;43.884;20.340;2023-06-24T06:11:09;16.00;;;7.82;;
54795;SDS011;40693;43.884;20.340;2023-06-24T06:13:35;10.63;;;7.93;;
54795;SDS011;40693;43.884;20.340;2023-06-24T06:16:01;11.18;;;7.05;;
54795;SDS011;40693;43.884;20.340;2023-06-24T06:18:26;17.13;;;8.35;;
54795;SDS011;40693;43.884;20.340;2023-06-24T06:20:52;13.27;;;7.35;;
54795;SDS011;40693;43.884;20.340;2023-06-24T06:23:18;10.43;;;7.55;;
54795;SDS011;40693;43.884;20.340;2023-06-24T06:25:44;20.15;;;7.85;;
54795;SDS011;40693;43.884;20.340;2023-06-24T06:28:09;10.20;;;6.80;;
54795;SDS011;40693;43.884;20.340;2023-06-24T06:30:35;12.52;;;7.40;;
54795;SDS011;40693;43.884;20.340;2023-06-24T06:33:01;9.95;;;6.90;;
54795;SDS011;40693;43.884;20.340;2023-06-24T06:35:26;11.00;;;6.22;;
54795;SDS011;40693;43.884;20.340;2023-06-24T06:37:52;9.65;;;7.00;;
54795;SDS011;40693;43.884;20.340;2023-06-24T06:40:22;14.93;;;6.40;;
54795;SDS011;40693;43.884;20.340;2023-06-24T06:42:47;9.80;;;5.90;;
54795;SDS011;40693;43.884;20.340;2023-06-24T06:45:13;12.18;;;5.72;;
54795;SDS011;40693;43.884;20.340;2023-06-24T06:47:39;10.57;;;6.68;;
54795;SDS011;40693;43.884;20.340;2023-06-24T06:50:05;7.85;;;5.47;;
54795;SDS011;40693;43.884;20.340;2023-06-24T06:52:32;9.60;;;5.45;;
54795;SDS011;40693;43.884;20.340;2023-06-24T06:54:58;11.43;;;6.50;;
54795;SDS011;40693;43.884;20.340;2023-06-24T06:57:24;10.15;;;6.25;;
54795;SDS011;40693;43.884;20.340;2023-06-24T06:59:50;8.48;;;5.30;;
54795;SDS011;40693;43.884;20.340;2023-06-24T07:02:17;9.70;;;5.50;;
54795;SDS011;40693;43.884;20.340;2023-06-24T07:04:44;18.30;;;6.18;;
54795;SDS011;40693;43.884;20.340;2023-06-24T07:07:10;13.07;;;6.93;;
54795;SDS011;40693;43.884;20.340;2023-06-24T07:09:37;9.82;;;6.25;;
54795;SDS011;40693;43.884;20.340;2023-06-24T07:12:02;11.43;;;6.20;;
54795;SDS011;40693;43.884;20.340;2023-06-24T07:14:28;8.82;;;6.55;;
54795;SDS011;40693;43.884;20.340;2023-06-24T07:16:54;8.25;;;6.45;;
54795;SDS011;40693;43.884;20.340;2023-06-24T07:19:20;19.38;;;7.35;;
54795;SDS011;40693;43.884;20.340;2023-06-24T07:21:45;9.90;;;6.72;;
54795;SDS011;40693;43.884;20.340;2023-06-24T07:24:11;15.90;;;7.78;;
54795;SDS011;40693;43.884;20.340;2023-06-24T07:26:37;12.60;;;7.93;;
54795;SDS011;40693;43.884;20.340;2023-06-24T07:29:05;11.85;;;8.35;;
54795;SDS011;40693;43.884;20.340;2023-06-24T07:31:31;14.50;;;8.82;;
54795;SDS011;40693;43.884;20.340;2023-06-24T07:33:57;10.10;;;8.00;;
54795;SDS011;40693;43.884;20.340;2023-06-24T07:36:22;16.98;;;9.07;;
54795;SDS011;40693;43.884;20.340;2023-06-24T07:38:48;14.50;;;10.70;;
54795;SDS011;40693;43.884;20.340;2023-06-24T07:41:14;16.00;;;12.40;;
54795;SDS011;40693;43.884;20.340;2023-06-24T07:43:40;12.88;;;10.35;;
54795;SDS011;40693;43.884;20.340;2023-06-24T07:46:05;19.15;;;12.98;;
54795;SDS011;40693;43.884;20.340;2023-06-24T07:48:31;16.40;;;13.52;;
54795;SDS011;40693;43.884;20.340;2023-06-24T07:50:57;18.13;;;15.18;;
54795;SDS011;40693;43.884;20.340;2023-06-24T07:53:23;18.27;;;16.13;;
54795;SDS011;40693;43.884;20.340;2023-06-24T07:55:49;16.98;;;13.70;;
54795;SDS011;40693;43.884;20.340;2023-06-24T07:58:14;23.92;;;16.42;;
54795;SDS011;40693;43.884;20.340;2023-06-24T08:00:40;20.92;;;16.75;;
54795;SDS011;40693;43.884;20.340;2023-06-24T08:03:06;22.73;;;17.10;;
54795;SDS011;40693;43.884;20.340;2023-06-24T08:05:31;19.85;;;17.73;;
54795;SDS011;40693;43.884;20.340;2023-06-24T08:07:57;19.45;;;16.40;;
54795;SDS011;40693;43.884;20.340;2023-06-24T08:10:23;17.75;;;15.80;;
54795;SDS011;40693;43.884;20.340;2023-06-24T08:12:48;18.95;;;16.92;;
54795;SDS011;40693;43.884;20.340;2023-06-24T08:15:14;18.85;;;16.73;;
54795;SDS011;40693;43.884;20.340;2023-06-24T08:17:40;21.02;;;17.35;;
54795;SDS011;40693;43.884;20.340;2023-06-24T08:20:06;24.55;;;18.23;;
54795;SDS011;40693;43.884;20.340;2023-06-24T08:22:31;21.73;;;18.40;;
54795;SDS011;40693;43.884;20.340;2023-06-24T08:24:58;25.17;;;18.10;;
54795;SDS011;40693;43.884;20.340;2023-06-24T08:27:23;21.83;;;19.05;;
54795;SDS011;40693;43.884;20.340;2023-06-24T08:29:50;22.48;;;19.17;;
54795;SDS011;40693;43.884;20.340;2023-06-24T08:32:16;21.17;;;17.65;;
54795;SDS011;40693;43.884;20.340;2023-06-24T08:34:42;21.38;;;19.23;;
54795;SDS011;40693;43.884;20.340;2023-06-24T08:37:07;22.20;;;19.83;;
54795;SDS011;40693;43.884;20.340;2023-06-24T08:39:33;24.77;;;21.23;;
54795;SDS011;40693;43.884;20.340;2023-06-24T08:41:59;24.23;;;21.42;;
54795;SDS011;40693;43.884;20.340;2023-06-24T08:44:24;27.08;;;22.20;;
54795;SDS011;40693;43.884;20.340;2023-06-24T08:46:50;27.00;;;21.50;;
54795;SDS011;40693;43.884;20.340;2023-06-24T08:51:58;27.30;;;21.60;;
54795;SDS011;40693;43.884;20.340;2023-06-24T08:54:33;27.05;;;23.10;;
54795;SDS011;40693;43.884;20.340;2023-06-24T08:57:01;25.08;;;21.95;;
54795;SDS011;40693;43.884;20.340;2023-06-24T08:59:30;26.00;;;23.20;;
54795;SDS011;40693;43.884;20.340;2023-06-24T09:01:56;31.30;;;23.52;;
54795;SDS011;40693;43.884;20.340;2023-06-24T09:04:22;24.60;;;22.00;;
54795;SDS011;40693;43.884;20.340;2023-06-24T09:06:48;27.38;;;23.73;;
54795;SDS011;40693;43.884;20.340;2023-06-24T09:09:23;26.80;;;21.48;;
54795;SDS011;40693;43.884;20.340;2023-06-24T09:11:56;26.75;;;22.63;;
54795;SDS011;40693;43.884;20.340;2023-06-24T09:14:26;26.33;;;23.65;;
54795;SDS011;40693;43.884;20.340;2023-06-24T09:16:58;25.58;;;22.92;;
54795;SDS011;40693;43.884;20.340;2023-06-24T09:19:31;25.23;;;21.80;;
54795;SDS011;40693;43.884;20.340;2023-06-24T09:22:10;28.83;;;23.92;;
54795;SDS011;40693;43.884;20.340;2023-06-24T09:24:41;25.85;;;22.15;;
54795;SDS011;40693;43.884;20.340;2023-06-24T09:27:07;27.77;;;22.50;;
54795;SDS011;40693;43.884;20.340;2023-06-24T09:29:34;25.65;;;22.70;;
54795;SDS011;40693;43.884;20.340;2023-06-24T09:32:03;25.70;;;22.80;;
54795;SDS011;40693;43.884;20.340;2023-06-24T09:34:30;26.67;;;22.13;;
54795;SDS011;40693;43.884;20.340;2023-06-24T09:36:57;27.70;;;21.15;;
54795;SDS011;40693;43.884;20.340;2023-06-24T09:39:24;32.45;;;23.05;;
54795;SDS011;40693;43.884;20.340;2023-06-24T09:41:57;30.02;;;24.67;;
54795;SDS011;40693;43.884;20.340;2023-06-24T09:44:27;27.75;;;22.92;;
54795;SDS011;40693;43.884;20.340;2023-06-24T09:46:53;28.52;;;21.98;;
54795;SDS011;40693;43.884;20.340;2023-06-24T09:49:23;28.10;;;23.83;;
54795;SDS011;40693;43.884;20.340;2023-06-24T09:51:49;24.38;;;21.90;;
54795;SDS011;40693;43.884;20.340;2023-06-24T09:54:19;29.70;;;25.40;;
54795;SDS011;40693;43.884;20.340;2023-06-24T09:56:48;24.73;;;21.65;;
54795;SDS011;40693;43.884;20.340;2023-06-24T09:59:14;26.65;;;21.20;;
54795;SDS011;40693;43.884;20.340;2023-06-24T10:01:43;25.52;;;22.77;;
54795;SDS011;40693;43.884;20.340;2023-06-24T10:04:12;27.00;;;23.83;;
54795;SDS011;40693;43.884;20.340;2023-06-24T10:06:42;27.98;;;24.40;;
54795;SDS011;40693;43.884;20.340;2023-06-24T10:09:08;30.23;;;26.77;;
54795;SDS011;40693;43.884;20.340;2023-06-24T10:11:33;33.35;;;25.25;;
54795;SDS011;40693;43.884;20.340;2023-06-24T10:13:59;27.27;;;24.20;;
54795;SDS011;40693;43.884;20.340;2023-06-24T10:16:25;27.95;;;25.15;;
54795;SDS011;40693;43.884;20.340;2023-06-24T10:18:51;25.77;;;22.90;;
54795;SDS011;40693;43.884;20.340;2023-06-24T10:21:17;27.00;;;24.20;;
54795;SDS011;40693;43.884;20.340;2023-06-24T10:23:50;26.85;;;23.98;;
54795;SDS011;40693;43.884;20.340;2023-06-24T10:26:29;25.45;;;22.75;;
54795;SDS011;40693;43.884;20.340;2023-06-24T10:39:56;25.95;;;22.73;;
54795;SDS011;40693;43.884;20.340;2023-06-24T10:45:17;27.63;;;23.75;;
54795;SDS011;40693;43.884;20.340;2023-06-24T10:47:46;27.90;;;22.80;;
54795;SDS011;40693;43.884;20.340;2023-06-24T10:50:20;28.10;;;24.47;;
54795;SDS011;40693;43.884;20.340;2023-06-24T10:52:48;36.17;;;28.50;;
54795;SDS011;40693;43.884;20.340;2023-06-24T10:55:18;28.60;;;23.92;;
54795;SDS011;40693;43.884;20.340;2023-06-24T10:57:44;31.33;;;26.10;;
54795;SDS011;40693;43.884;20.340;2023-06-24T11:00:11;27.40;;;24.50;;
54795;SDS011;40693;43.884;20.340;2023-06-24T11:02:38;29.35;;;25.00;;
54795;SDS011;40693;43.884;20.340;2023-06-24T11:05:04;26.98;;;23.77;;
54795;SDS011;40693;43.884;20.340;2023-06-24T11:07:30;25.52;;;22.50;;
54795;SDS011;40693;43.884;20.340;2023-06-24T11:10:10;25.77;;;23.05;;
54795;SDS011;40693;43.884;20.340;2023-06-24T11:12:38;26.02;;;21.85;;
54795;SDS011;40693;43.884;20.340;2023-06-24T11:15:05;25.02;;;22.35;;
54795;SDS011;40693;43.884;20.340;2023-06-24T11:17:33;25.77;;;22.88;;
54795;SDS011;40693;43.884;20.340;2023-06-24T11:20:00;28.05;;;23.20;;
54795;SDS011;40693;43.884;20.340;2023-06-24T11:22:27;24.77;;;22.17;;
54795;SDS011;40693;43.884;20.340;2023-06-24T11:24:53;24.92;;;22.10;;
54795;SDS011;40693;43.884;20.340;2023-06-24T11:27:23;24.15;;;21.55;;
54795;SDS011;40693;43.884;20.340;2023-06-24T11:29:51;32.35;;;21.17;;
54795;SDS011;40693;43.884;20.340;2023-06-24T11:32:18;25.25;;;21.55;;
54795;SDS011;40693;43.884;20.340;2023-06-24T11:34:44;27.27;;;21.70;;
54795;SDS011;40693;43.884;20.340;2023-06-24T11:37:11;26.95;;;21.88;;
54795;SDS011;40693;43.884;20.340;2023-06-24T11:39:38;25.30;;;22.25;;
54795;SDS011;40693;43.884;20.340;2023-06-24T11:42:06;26.27;;;21.95;;
54795;SDS011;40693;43.884;20.340;2023-06-24T11:44:36;23.60;;;21.05;;
54795;SDS011;40693;43.884;20.340;2023-06-24T11:52:37;26.65;;;21.88;;
54795;SDS011;40693;43.884;20.340;2023-06-24T11:55:27;25.67;;;22.25;;
54795;SDS011;40693;43.884;20.340;2023-06-24T12:02:49;22.75;;;20.33;;
54795;SDS011;40693;43.884;20.340;2023-06-24T12:05:28;28.10;;;21.42;;
54795;SDS011;40693;43.884;20.340;2023-06-24T12:07:59;27.42;;;23.40;;
54795;SDS011;40693;43.884;20.340;2023-06-24T12:10:29;25.17;;;21.98;;
54795;SDS011;40693;43.884;20.340;2023-06-24T12:12:58;30.58;;;23.83;;
54795;SDS011;40693;43.884;20.340;2023-06-24T12:15:25;29.42;;;22.23;;
54795;SDS011;40693;43.884;20.340;2023-06-24T12:17:51;27.08;;;23.00;;
54795;SDS011;40693;43.884;20.340;2023-06-24T12:20:17;26.98;;;22.25;;
54795;SDS011;40693;43.884;20.340;2023-06-24T12:22:43;25.02;;;21.17;;
54795;SDS011;40693;43.884;20.340;2023-06-24T12:25:10;26.98;;;22.55;;
54795;SDS011;40693;43.884;20.340;2023-06-24T12:27:37;27.90;;;21.77;;
54795;SDS011;40693;43.884;20.340;2023-06-24T12:30:03;29.77;;;23.88;;
54795;SDS011;40693;43.884;20.340;2023-06-24T12:32:29;28.80;;;22.98;;
54795;SDS011;40693;43.884;20.340;2023-06-24T12:34:55;28.13;;;22.38;;
54795;SDS011;40693;43.884;20.340;2023-06-24T12:37:21;23.75;;;20.55;;
54795;SDS011;40693;43.884;20.340;2023-06-24T12:39:47;27.17;;;21.70;;
54795;SDS011;40693;43.884;20.340;2023-06-24T12:42:13;27.35;;;22.08;;
54795;SDS011;40693;43.884;20.340;2023-06-24T12:44:38;24.05;;;20.38;;
54795;SDS011;40693;43.884;20.340;2023-06-24T12:47:04;24.38;;;21.63;;
54795;SDS011;40693;43.884;20.340;2023-06-24T12:49:30;28.98;;;22.00;;
54795;SDS011;40693;43.884;20.340;2023-06-24T12:51:56;26.90;;;20.83;;
54795;SDS011;40693;43.884;20.340;2023-06-24T12:54:21;24.35;;;21.75;;
54795;SDS011;40693;43.884;20.340;2023-06-24T12:56:47;26.92;;;22.52;;
54795;SDS011;40693;43.884;20.340;2023-06-24T12:59:13;26.50;;;21.17;;
54795;SDS011;40693;43.884;20.340;2023-06-24T13:01:38;27.00;;;21.83;;
54795;SDS011;40693;43.884;20.340;2023-06-24T13:04:04;25.65;;;21.20;;
54795;SDS011;40693;43.884;20.340;2023-06-24T13:06:30;28.00;;;22.42;;
54795;SDS011;40693;43.884;20.340;2023-06-24T13:08:56;25.13;;;21.75;;
54795;SDS011;40693;43.884;20.340;2023-06-24T13:11:21;26.25;;;22.42;;
54795;SDS011;40693;43.884;20.340;2023-06-24T13:13:47;27.63;;;22.33;;
54795;SDS011;40693;43.884;20.340;2023-06-24T13:16:13;29.08;;;23.80;;
54795;SDS011;40693;43.884;20.340;2023-06-24T13:18:38;29.48;;;23.55;;
54795;SDS011;40693;43.884;20.340;2023-06-24T13:21:04;33.70;;;25.67;;
54795;SDS011;40693;43.884;20.340;2023-06-24T13:23:30;28.75;;;22.60;;
54795;SDS011;40693;43.884;20.340;2023-06-24T13:25:55;32.88;;;22.13;;
54795;SDS011;40693;43.884;20.340;2023-06-24T13:28:22;26.27;;;22.27;;
54795;SDS011;40693;43.884;20.340;2023-06-24T13:30:48;31.80;;;23.52;;
54795;SDS011;40693;43.884;20.340;2023-06-24T13:33:14;27.27;;;23.17;;
54795;SDS011;40693;43.884;20.340;2023-06-24T13:35:39;26.73;;;22.67;;
54795;SDS011;40693;43.884;20.340;2023-06-24T13:38:05;28.50;;;22.15;;
54795;SDS011;40693;43.884;20.340;2023-06-24T13:40:32;27.80;;;21.95;;
54795;SDS011;40693;43.884;20.340;2023-06-24T13:42:59;26.27;;;21.58;;
54795;SDS011;40693;43.884;20.340;2023-06-24T13:45:25;30.55;;;23.17;;
54795;SDS011;40693;43.884;20.340;2023-06-24T13:47:50;29.25;;;22.48;;
54795;SDS011;40693;43.884;20.340;2023-06-24T13:50:16;32.55;;;22.92;;
54795;SDS011;40693;43.884;20.340;2023-06-24T13:52:42;30.05;;;23.50;;
54795;SDS011;40693;43.884;20.340;2023-06-24T13:55:08;29.23;;;22.00;;
54795;SDS011;40693;43.884;20.340;2023-06-24T13:57:33;23.88;;;20.38;;
54795;SDS011;40693;43.884;20.340;2023-06-24T13:59:59;29.48;;;22.38;;
54795;SDS011;40693;43.884;20.340;2023-06-24T14:02:25;32.38;;;23.60;;
54795;SDS011;40693;43.884;20.340;2023-06-24T14:04:50;28.35;;;21.83;;
54795;SDS011;40693;43.884;20.340;2023-06-24T14:07:16;26.05;;;22.13;;
54795;SDS011;40693;43.884;20.340;2023-06-24T14:09:42;24.83;;;21.25;;
54795;SDS011;40693;43.884;20.340;2023-06-24T14:12:08;27.13;;;23.65;;
54795;SDS011;40693;43.884;20.340;2023-06-24T14:14:34;27.67;;;22.30;;
54795;SDS011;40693;43.884;20.340;2023-06-24T14:17:05;29.30;;;22.23;;
54795;SDS011;40693;43.884;20.340;2023-06-24T14:19:34;27.73;;;23.35;;
54795;SDS011;40693;43.884;20.340;2023-06-24T14:22:00;24.27;;;21.75;;
54795;SDS011;40693;43.884;20.340;2023-06-24T14:24:26;22.45;;;20.05;;
54795;SDS011;40693;43.884;20.340;2023-06-24T14:26:52;25.38;;;21.02;;
54795;SDS011;40693;43.884;20.340;2023-06-24T14:29:17;29.05;;;22.80;;
54795;SDS011;40693;43.884;20.340;2023-06-24T14:31:43;29.13;;;21.95;;
54795;SDS011;40693;43.884;20.340;2023-06-24T14:34:09;26.05;;;22.10;;
54795;SDS011;40693;43.884;20.340;2023-06-24T14:36:35;25.92;;;22.02;;
54795;SDS011;40693;43.884;20.340;2023-06-24T14:39:00;25.38;;;22.63;;
54795;SDS011;40693;43.884;20.340;2023-06-24T14:41:26;25.05;;;21.38;;
54795;SDS011;40693;43.884;20.340;2023-06-24T14:43:52;24.27;;;21.60;;
54795;SDS011;40693;43.884;20.340;2023-06-24T14:46:17;25.80;;;20.00;;
54795;SDS011;40693;43.884;20.340;2023-06-24T14:48:43;22.70;;;19.90;;
54795;SDS011;40693;43.884;20.340;2023-06-24T14:51:09;22.65;;;19.52;;
54795;SDS011;40693;43.884;20.340;2023-06-24T14:53:34;22.02;;;19.48;;
54795;SDS011;40693;43.884;20.340;2023-06-24T14:56:00;21.52;;;18.90;;
54795;SDS011;40693;43.884;20.340;2023-06-24T14:58:26;22.30;;;19.05;;